createdAt,value
2022-11-28T00:01:08.830Z,22.05
2022-11-28T00:02:41.738Z,20.88
2022-11-28T00:04:16.623Z,20.45
2022-11-28T00:05:48.842Z,21.70
2022-11-28T00:07:20.829Z,17.38
2022-11-28T00:08:52.834Z,19.73
2022-11-28T00:10:24.454Z,17.95
2022-11-28T00:11:56.304Z,15.32
2022-11-28T00:13:27.865Z,15.25
2022-11-28T00:14:59.496Z,16.50
2022-11-28T00:16:31.261Z,17.60
2022-11-28T00:18:03.317Z,17.75
2022-11-28T00:19:35.019Z,15.50
2022-11-28T00:21:09.077Z,17.05
2022-11-28T00:22:40.609Z,19.08
2022-11-28T00:24:12.203Z,16.92
2022-11-28T00:25:43.886Z,14.55
2022-11-28T00:27:15.489Z,19.23
2022-11-28T00:28:47.761Z,21.33
2022-11-28T00:30:19.412Z,18.17
2022-11-28T00:31:51.126Z,19.80
2022-11-28T00:33:23.029Z,19.00
2022-11-28T00:34:54.618Z,19.10
2022-11-28T00:36:26.179Z,21.42
2022-11-28T00:37:57.711Z,16.95
2022-11-28T00:39:29.508Z,17.02
2022-11-28T00:41:03.404Z,20.88
2022-11-28T00:42:35.057Z,16.52
2022-11-28T00:44:06.789Z,18.67
2022-11-28T00:45:38.466Z,19.90
2022-11-28T00:47:12.232Z,19.02
2022-11-28T00:48:44.355Z,19.90
2022-11-28T00:50:16.161Z,16.75
2022-11-28T00:51:47.809Z,21.02
2022-11-28T00:53:19.723Z,16.45
2022-11-28T00:54:51.316Z,19.35
2022-11-28T00:56:29.514Z,22.50
2022-11-28T00:58:01.056Z,21.25
2022-11-28T00:59:32.582Z,23.25
2022-11-28T01:01:15.970Z,22.30
2022-11-28T01:02:47.735Z,24.65
2022-11-28T01:04:19.405Z,22.77
2022-11-28T01:05:51.010Z,19.98
2022-11-28T01:07:22.707Z,23.77
2022-11-28T01:08:55.627Z,21.45
2022-11-28T01:10:27.226Z,23.20
2022-11-28T01:11:58.811Z,23.80
2022-11-28T01:13:30.512Z,23.90
2022-11-28T01:15:02.089Z,23.23
2022-11-28T01:16:33.684Z,23.45
2022-11-28T01:18:05.339Z,23.88
2022-11-28T01:19:37.096Z,23.52
2022-11-28T01:21:09.167Z,18.92
2022-11-28T01:22:40.725Z,21.73
2022-11-28T01:24:12.716Z,19.33
2022-11-28T01:25:44.240Z,18.40
2022-11-28T01:27:15.934Z,24.23
2022-11-28T01:28:48.402Z,18.95
2022-11-28T01:30:20.030Z,21.77
2022-11-28T01:31:51.607Z,26.00
2022-11-28T01:33:23.233Z,20.52
2022-11-28T01:34:54.801Z,24.92
2022-11-28T01:36:27.153Z,16.98
2022-11-28T01:37:58.812Z,22.63
2022-11-28T01:39:30.463Z,21.15
2022-11-28T01:41:02.301Z,19.05
2022-11-28T01:42:33.929Z,19.35
2022-11-28T01:44:14.785Z,20.55
2022-11-28T01:45:46.517Z,19.23
2022-11-28T01:47:23.154Z,21.08
2022-11-28T01:48:59.741Z,19.33
2022-11-28T01:50:33.119Z,22.30
2022-11-28T01:52:11.527Z,21.77
2022-11-28T01:53:46.634Z,20.50
2022-11-28T01:55:22.657Z,21.17
2022-11-28T01:58:33.223Z,21.30
2022-11-28T02:00:09.866Z,21.52
2022-11-28T02:01:47.265Z,21.25
2022-11-28T02:03:27.100Z,23.27
2022-11-28T02:04:59.261Z,21.63
2022-11-28T02:06:32.427Z,24.02
2022-11-28T02:08:04.395Z,22.15
2022-11-28T02:09:35.982Z,22.15
2022-11-28T02:11:33.866Z,22.77
2022-11-28T02:13:11.370Z,22.85
2022-11-28T02:15:01.216Z,25.40
2022-11-28T02:16:54.988Z,23.75
2022-11-28T02:18:49.049Z,24.15
2022-11-28T02:20:31.186Z,20.20
2022-11-28T02:22:08.040Z,19.63
2022-11-28T02:23:42.320Z,21.27
2022-11-28T02:25:41.329Z,20.38
2022-11-28T02:27:33.958Z,21.52
2022-11-28T02:29:33.030Z,20.50
2022-11-28T02:31:16.663Z,19.00
2022-11-28T02:32:54.154Z,23.20
2022-11-28T02:34:33.452Z,21.80
2022-11-28T02:36:15.198Z,25.95
2022-11-28T02:38:05.429Z,20.73
2022-11-28T02:40:00.659Z,22.35
2022-11-28T02:41:48.011Z,23.08
2022-11-28T02:43:22.475Z,20.20
2022-11-28T02:44:56.825Z,21.83
2022-11-28T02:46:37.779Z,22.90
2022-11-28T02:48:17.306Z,19.98
2022-11-28T02:50:05.570Z,21.73
2022-11-28T02:51:39.906Z,23.90
2022-11-28T02:53:20.145Z,25.17
2022-11-28T02:54:52.462Z,24.15
2022-11-28T02:56:25.334Z,19.38
2022-11-28T02:57:56.945Z,19.10
2022-11-28T02:59:31.562Z,20.55
2022-11-28T03:01:04.480Z,19.00
2022-11-28T03:02:36.392Z,21.75
2022-11-28T03:04:41.902Z,21.80
2022-11-28T03:06:17.802Z,20.05
2022-11-28T03:08:28.115Z,17.10
2022-11-28T03:10:22.589Z,19.40
2022-11-28T03:12:03.341Z,20.27
2022-11-28T03:13:54.681Z,17.08
2022-11-28T03:15:39.307Z,18.05
2022-11-28T03:17:32.872Z,18.95
2022-11-28T03:19:26.457Z,17.50
2022-11-28T03:21:09.994Z,17.42
2022-11-28T03:22:59.698Z,18.75
2022-11-28T03:24:41.680Z,18.17
2022-11-28T03:26:27.120Z,18.92
2022-11-28T03:28:11.003Z,18.13
2022-11-28T03:29:49.420Z,17.25
2022-11-28T03:31:46.681Z,16.55
2022-11-28T03:33:21.212Z,18.30
2022-11-28T03:35:00.680Z,19.25
2022-11-28T03:36:38.571Z,21.95
2022-11-28T03:38:17.462Z,20.50
2022-11-28T03:39:58.015Z,20.63
2022-11-28T03:41:36.160Z,23.23
2022-11-28T03:43:17.452Z,20.00
2022-11-28T03:44:58.638Z,19.75
2022-11-28T03:46:36.582Z,16.75
2022-11-28T03:48:13.915Z,17.67
2022-11-28T03:49:53.042Z,17.30
2022-11-28T03:51:55.151Z,18.17
2022-11-28T03:53:35.897Z,16.80
2022-11-28T03:55:22.450Z,16.95
2022-11-28T03:56:59.838Z,14.27
2022-11-28T03:58:36.976Z,14.50
2022-11-28T04:00:13.004Z,18.70
2022-11-28T04:02:02.370Z,15.40
2022-11-28T04:03:38.825Z,16.83
2022-11-28T04:05:24.870Z,15.35
2022-11-28T04:07:11.309Z,14.00
2022-11-28T04:08:58.412Z,15.88
2022-11-28T04:10:35.747Z,18.50
2022-11-28T04:12:34.520Z,15.65
2022-11-28T04:14:15.403Z,17.23
2022-11-28T04:15:59.368Z,17.50
2022-11-28T04:17:40.840Z,16.27
2022-11-28T04:19:16.494Z,17.02
2022-11-28T04:20:56.775Z,18.63
2022-11-28T04:22:39.087Z,18.80
2022-11-28T04:24:15.849Z,15.73
2022-11-28T04:26:00.564Z,19.08
2022-11-28T04:27:38.771Z,14.60
2022-11-28T04:29:15.301Z,15.80
2022-11-28T04:30:50.180Z,18.20
2022-11-28T04:32:24.206Z,14.77
2022-11-28T04:33:59.914Z,14.32
2022-11-28T04:35:41.023Z,17.20
2022-11-28T04:37:15.431Z,15.75
2022-11-28T04:38:56.101Z,16.52
2022-11-28T04:40:32.966Z,14.10
2022-11-28T04:42:14.409Z,16.17
2022-11-28T04:43:52.130Z,17.15
2022-11-28T04:45:30.527Z,13.52
2022-11-28T04:47:02.828Z,16.35
2022-11-28T04:48:34.719Z,16.40
2022-11-28T04:50:07.202Z,18.25
2022-11-28T04:52:03.403Z,14.38
2022-11-28T04:53:43.604Z,16.85
2022-11-28T04:55:28.981Z,15.23
2022-11-28T04:57:11.323Z,15.65
2022-11-28T04:58:46.893Z,16.10
2022-11-28T05:00:21.184Z,16.25
2022-11-28T05:01:53.850Z,18.50
2022-11-28T05:03:28.784Z,19.45
2022-11-28T05:05:00.345Z,15.43
2022-11-28T05:06:36.492Z,18.58
2022-11-28T05:08:08.080Z,17.65
2022-11-28T05:09:39.769Z,17.23
2022-11-28T05:11:11.339Z,17.48
2022-11-28T05:12:43.098Z,18.42
2022-11-28T05:14:18.984Z,18.30
2022-11-28T05:15:50.595Z,18.67
2022-11-28T05:17:22.156Z,18.50
2022-11-28T05:18:53.797Z,19.45
2022-11-28T05:20:25.623Z,18.70
2022-11-28T05:21:57.213Z,18.83
2022-11-28T05:23:28.869Z,18.48
2022-11-28T05:25:00.407Z,18.40
2022-11-28T05:26:32.775Z,19.13
2022-11-28T05:28:04.565Z,16.60
2022-11-28T05:29:36.173Z,16.77
2022-11-28T05:31:07.780Z,15.77
2022-11-28T05:32:39.528Z,19.13
2022-11-28T05:34:11.086Z,21.52
2022-11-28T05:35:42.633Z,22.08
2022-11-28T05:37:14.258Z,17.42
2022-11-28T05:38:45.861Z,22.27
2022-11-28T05:40:17.541Z,17.50
2022-11-28T05:41:49.140Z,20.02
2022-11-28T05:43:20.683Z,20.48
2022-11-28T05:44:52.771Z,18.95
2022-11-28T05:46:25.569Z,19.33
2022-11-28T05:47:57.137Z,20.58
2022-11-28T05:49:28.959Z,18.55
2022-11-28T05:51:00.558Z,16.52
2022-11-28T05:52:32.537Z,18.60
2022-11-28T05:54:04.372Z,19.50
2022-11-28T05:55:38.665Z,21.60
2022-11-28T05:57:10.228Z,21.50
2022-11-28T05:58:42.661Z,18.42
2022-11-28T06:00:14.661Z,19.15
2022-11-28T06:01:46.375Z,19.83
2022-11-28T06:03:18.002Z,16.20
2022-11-28T06:04:49.740Z,17.17
2022-11-28T06:06:22.175Z,14.82
2022-11-28T06:07:53.823Z,19.48
2022-11-28T06:09:26.333Z,18.08
2022-11-28T06:10:59.278Z,20.52
2022-11-28T06:12:30.843Z,17.73
2022-11-28T06:14:03.045Z,24.33
2022-11-28T06:15:37.832Z,21.77
2022-11-28T06:17:10.084Z,25.15
2022-11-28T06:18:41.772Z,22.08
2022-11-28T06:20:13.547Z,19.80
2022-11-28T06:21:45.192Z,25.70
2022-11-28T06:23:16.807Z,27.45
2022-11-28T06:24:48.409Z,26.48
2022-11-28T06:26:22.097Z,28.50
2022-11-28T06:27:53.600Z,26.25
2022-11-28T06:29:25.163Z,23.83
2022-11-28T06:30:56.759Z,25.20
2022-11-28T06:32:28.341Z,25.13
2022-11-28T06:33:59.943Z,25.33
2022-11-28T06:35:31.590Z,22.23
2022-11-28T06:37:03.263Z,25.05
2022-11-28T06:38:34.946Z,25.83
2022-11-28T06:40:07.168Z,19.52
2022-11-28T06:41:38.790Z,21.52
2022-11-28T06:43:10.409Z,23.23
2022-11-28T06:44:41.977Z,18.38
2022-11-28T06:46:20.054Z,20.17
2022-11-28T06:47:51.801Z,21.30
2022-11-28T06:49:23.537Z,18.88
2022-11-28T06:51:01.445Z,21.80
2022-11-28T06:52:32.986Z,20.35
2022-11-28T06:54:05.022Z,21.02
2022-11-28T06:55:37.154Z,21.48
2022-11-28T06:57:08.646Z,19.02
2022-11-28T06:58:40.535Z,21.73
2022-11-28T07:00:12.775Z,17.35
2022-11-28T07:01:45.340Z,19.45
2022-11-28T07:03:17.007Z,23.27
2022-11-28T07:04:48.615Z,22.00
2022-11-28T07:06:22.039Z,21.45
2022-11-28T07:07:57.383Z,19.27
2022-11-28T07:09:29.095Z,19.45
2022-11-28T07:11:09.398Z,16.45
2022-11-28T07:12:41.031Z,17.92
2022-11-28T07:14:12.561Z,20.02
2022-11-28T07:16:02.140Z,23.38
2022-11-28T07:17:34.480Z,18.35
2022-11-28T07:19:06.233Z,19.67
2022-11-28T07:20:37.769Z,25.30
2022-11-28T07:22:11.641Z,25.88
2022-11-28T07:23:44.148Z,19.73
2022-11-28T07:25:16.090Z,27.10
2022-11-28T07:26:47.751Z,24.27
2022-11-28T07:28:23.122Z,23.60
2022-11-28T07:29:55.360Z,24.27
2022-11-28T07:31:31.560Z,21.73
2022-11-28T07:33:03.340Z,22.60
2022-11-28T07:34:35.099Z,23.17
2022-11-28T07:36:11.232Z,19.15
2022-11-28T07:39:17.493Z,19.33
2022-11-28T07:40:49.109Z,20.05
2022-11-28T07:42:20.665Z,18.50
2022-11-28T07:44:07.629Z,18.92
2022-11-28T07:45:59.518Z,14.27
2022-11-28T07:47:31.575Z,16.77
2022-11-28T07:49:04.254Z,18.67
2022-11-28T07:50:38.884Z,18.73
2022-11-28T07:52:10.410Z,17.60
2022-11-28T07:53:42.541Z,17.75
2022-11-28T07:55:14.169Z,16.17
2022-11-28T07:58:38.998Z,15.88
2022-11-28T08:00:11.122Z,16.52
2022-11-28T08:01:44.222Z,15.65
2022-11-28T08:03:15.930Z,14.32
2022-11-28T08:04:51.616Z,18.38
2022-11-28T08:06:28.148Z,15.30
2022-11-28T08:07:59.871Z,16.42
2022-11-28T08:09:32.591Z,17.90
2022-11-28T08:11:08.090Z,18.02
2022-11-28T08:12:39.635Z,19.98
2022-11-28T08:14:11.544Z,19.52
2022-11-28T08:15:43.244Z,14.02
2022-11-28T08:17:14.863Z,25.75
2022-11-28T08:18:48.157Z,14.55
2022-11-28T08:20:19.733Z,13.50
2022-11-28T08:21:51.452Z,16.63
2022-11-28T08:23:23.022Z,16.52
2022-11-28T08:24:54.600Z,20.35
2022-11-28T08:26:30.387Z,19.33
2022-11-28T08:28:02.520Z,15.30
2022-11-28T08:29:34.220Z,17.05
2022-11-28T08:31:10.016Z,24.63
2022-11-28T08:32:41.667Z,21.85
2022-11-28T08:34:13.320Z,23.38
2022-11-28T08:35:45.004Z,18.00
2022-11-28T08:37:16.639Z,17.83
2022-11-28T08:39:03.338Z,20.05
2022-11-28T08:40:40.882Z,20.10
2022-11-28T08:42:12.574Z,19.95
2022-11-28T08:43:44.990Z,16.85
2022-11-28T08:45:16.635Z,20.48
2022-11-28T08:46:48.229Z,22.73
2022-11-28T08:48:19.788Z,24.05
2022-11-28T08:49:51.500Z,21.23
2022-11-28T08:51:24.000Z,17.50
2022-11-28T08:52:56.235Z,38.35
2022-11-28T08:54:27.839Z,41.58
2022-11-28T08:56:00.253Z,28.85
2022-11-28T08:57:32.039Z,22.92
2022-11-28T08:59:04.157Z,43.67
2022-11-28T09:00:35.815Z,33.78
2022-11-28T09:02:10.779Z,31.27
2022-11-28T09:03:42.461Z,26.88
2022-11-28T09:05:14.123Z,27.25
2022-11-28T09:06:45.710Z,22.63
2022-11-28T09:08:20.015Z,18.05
2022-11-28T09:09:51.595Z,20.70
2022-11-28T09:11:23.834Z,23.45
2022-11-28T09:12:55.402Z,21.13
2022-11-28T09:14:27.217Z,18.98
2022-11-28T09:15:58.884Z,21.60
2022-11-28T09:17:30.506Z,25.05
2022-11-28T09:19:02.144Z,20.73
2022-11-28T09:20:34.321Z,22.15
2022-11-28T09:22:05.986Z,16.77
2022-11-28T09:23:39.652Z,18.33
2022-11-28T09:25:11.228Z,21.45
2022-11-28T09:26:42.880Z,18.55
2022-11-28T09:28:14.530Z,18.13
2022-11-28T09:29:46.220Z,19.08
2022-11-28T09:31:19.028Z,17.13
2022-11-28T09:32:50.648Z,20.67
2022-11-28T09:34:22.178Z,19.98
2022-11-28T09:35:55.453Z,23.38
2022-11-28T09:37:29.840Z,24.35
2022-11-28T09:39:02.168Z,19.25
2022-11-28T09:40:38.542Z,21.38
2022-11-28T09:42:28.051Z,20.88
2022-11-28T09:44:14.923Z,17.17
2022-11-28T09:45:50.981Z,24.10
2022-11-28T09:47:32.042Z,20.77
2022-11-28T09:49:25.276Z,21.00
2022-11-28T09:51:17.887Z,19.05
2022-11-28T09:52:54.129Z,22.38
2022-11-28T09:54:55.051Z,19.00
2022-11-28T09:56:27.178Z,19.20
2022-11-28T09:58:01.471Z,17.67
2022-11-28T09:59:33.954Z,24.33
2022-11-28T10:01:13.205Z,19.48
2022-11-28T10:03:16.758Z,19.42
2022-11-28T10:04:59.997Z,21.50
2022-11-28T10:06:31.660Z,17.70
2022-11-28T10:08:21.696Z,17.65
2022-11-28T10:10:16.205Z,19.17
2022-11-28T10:12:26.277Z,20.05
2022-11-28T10:14:15.778Z,18.02
2022-11-28T10:16:14.912Z,15.68
2022-11-28T10:17:57.541Z,15.88
2022-11-28T10:21:48.244Z,112.55
2022-11-28T10:23:24.580Z,41.30
2022-11-28T10:24:59.949Z,29.15
2022-11-28T10:26:36.854Z,31.75
2022-11-28T10:28:19.630Z,22.88
2022-11-28T10:30:03.958Z,28.52
2022-11-28T10:31:43.417Z,19.33
2022-11-28T10:33:29.604Z,18.90
2022-11-28T10:35:11.555Z,17.90
2022-11-28T10:36:55.553Z,42.15
2022-11-28T10:38:29.678Z,29.90
2022-11-28T10:40:34.494Z,33.13
2022-11-28T10:42:50.384Z,25.50
2022-11-28T10:44:34.250Z,21.67
2022-11-28T10:46:27.845Z,23.52
2022-11-28T10:48:37.931Z,26.27
2022-11-28T10:50:07.193Z,22.05
2022-11-28T10:51:38.809Z,26.42
2022-11-28T10:53:59.217Z,29.48
2022-11-28T10:55:47.743Z,24.77
2022-11-28T10:57:38.659Z,18.25
2022-11-28T10:59:12.900Z,23.13
2022-11-28T11:00:49.302Z,19.33
2022-11-28T11:02:29.761Z,19.90
2022-11-28T11:04:01.620Z,19.05
2022-11-28T11:05:35.895Z,22.48
2022-11-28T11:07:21.007Z,19.45
2022-11-28T11:08:54.387Z,17.15
2022-11-28T11:10:26.021Z,17.30
2022-11-28T11:12:01.081Z,20.02
2022-11-28T11:13:35.328Z,18.48
2022-11-28T11:15:33.816Z,16.65
2022-11-28T11:17:05.938Z,17.35
2022-11-28T11:18:52.144Z,19.15
2022-11-28T11:20:23.693Z,28.70
2022-11-28T11:22:21.423Z,25.70
2022-11-28T11:24:32.174Z,24.85
2022-11-28T11:26:06.211Z,21.25
2022-11-28T11:27:38.414Z,24.58
2022-11-28T11:29:30.932Z,20.00
2022-11-28T11:31:14.719Z,19.85
2022-11-28T11:32:51.417Z,18.75
2022-11-28T11:34:24.437Z,20.88
2022-11-28T11:35:55.993Z,16.85
2022-11-28T11:37:39.107Z,16.50
2022-11-28T11:39:12.869Z,18.65
2022-11-28T11:40:44.631Z,17.95
2022-11-28T11:42:25.592Z,18.88
2022-11-28T11:44:25.094Z,16.33
2022-11-28T11:46:05.837Z,15.63
2022-11-28T11:47:42.872Z,15.70
2022-11-28T11:49:48.414Z,16.73
2022-11-28T11:51:28.943Z,18.63
2022-11-28T11:53:03.300Z,20.08
2022-11-28T11:54:34.923Z,15.93
2022-11-28T11:56:06.672Z,15.77
2022-11-28T11:57:39.380Z,19.20
2022-11-28T11:59:17.243Z,17.73
2022-11-28T12:00:51.175Z,15.90
2022-11-28T12:02:43.341Z,16.98
2022-11-28T12:04:45.075Z,18.35
2022-11-28T12:06:24.195Z,14.02
2022-11-28T12:08:07.744Z,14.80
2022-11-28T12:09:49.165Z,16.42
2022-11-28T12:11:33.403Z,20.75
2022-11-28T12:13:04.960Z,20.80
2022-11-28T12:14:38.699Z,18.20
2022-11-28T12:16:16.461Z,13.95
2022-11-28T12:18:13.603Z,21.02
2022-11-28T12:20:04.745Z,17.42
2022-11-28T12:22:05.432Z,18.25
2022-11-28T12:24:08.464Z,19.25
2022-11-28T12:26:12.136Z,18.65
2022-11-28T12:27:55.674Z,16.90
2022-11-28T12:29:39.736Z,20.08
2022-11-28T12:31:24.187Z,19.52
2022-11-28T12:33:07.696Z,19.70
2022-11-28T12:34:39.251Z,20.55
2022-11-28T12:36:21.658Z,19.55
2022-11-28T12:38:10.610Z,18.45
2022-11-28T12:40:04.116Z,20.25
2022-11-28T12:41:50.299Z,19.88
2022-11-28T12:43:59.405Z,21.92
2022-11-28T12:45:36.812Z,23.77
2022-11-28T12:47:22.336Z,19.73
2022-11-28T12:49:14.362Z,20.60
2022-11-28T12:50:53.472Z,18.15
2022-11-28T12:52:50.033Z,22.35
2022-11-28T12:54:39.936Z,26.33
2022-11-28T12:56:36.334Z,22.80
2022-11-28T12:58:13.554Z,25.77
2022-11-28T12:59:52.074Z,23.45
2022-11-28T13:01:29.690Z,25.38
2022-11-28T13:03:10.091Z,22.13
2022-11-28T13:04:54.024Z,20.42
2022-11-28T13:06:43.499Z,20.15
2022-11-28T13:08:47.970Z,20.38
2022-11-28T13:10:38.090Z,17.17
2022-11-28T13:12:28.392Z,24.45
2022-11-28T13:14:22.140Z,22.38
2022-11-28T13:16:00.329Z,19.70
2022-11-28T13:17:37.924Z,19.45
2022-11-28T13:19:37.315Z,25.75
2022-11-28T13:21:19.501Z,19.35
2022-11-28T13:22:57.362Z,23.38
2022-11-28T13:24:33.914Z,20.05
2022-11-28T13:26:14.350Z,20.95
2022-11-28T13:28:03.409Z,20.45
2022-11-28T13:29:40.905Z,21.10
2022-11-28T13:31:49.925Z,18.38
2022-11-28T13:33:42.520Z,21.70
2022-11-28T13:35:17.388Z,17.92
2022-11-28T13:39:20.500Z,18.92
2022-11-28T13:41:35.765Z,17.27
2022-11-28T13:43:30.545Z,16.27
2022-11-28T13:45:31.724Z,15.55
2022-11-28T13:47:22.226Z,26.38
2022-11-28T13:49:15.178Z,23.02
2022-11-28T13:51:19.258Z,29.15
2022-11-28T13:53:01.350Z,24.08
2022-11-28T13:54:34.074Z,22.48
2022-11-28T13:56:05.648Z,25.20
2022-11-28T13:57:39.130Z,28.13
2022-11-28T13:59:22.202Z,25.15
2022-11-28T14:01:15.402Z,31.00
2022-11-28T14:02:53.113Z,27.23
2022-11-28T14:06:00.753Z,27.02
2022-11-28T14:07:33.926Z,28.92
2022-11-28T14:09:44.603Z,34.20
2022-11-28T14:11:34.836Z,23.17
2022-11-28T14:13:17.172Z,21.92
2022-11-28T14:15:15.190Z,16.90
2022-11-28T14:17:25.234Z,18.48
2022-11-28T14:19:32.045Z,17.52
2022-11-28T14:23:00.960Z,19.05
2022-11-28T14:24:55.504Z,20.35
2022-11-28T14:26:39.511Z,17.20
2022-11-28T14:28:16.351Z,17.58
2022-11-28T14:29:51.964Z,22.25
2022-11-28T14:31:32.643Z,23.90
2022-11-28T14:33:17.129Z,27.25
2022-11-28T14:34:49.118Z,22.52
2022-11-28T14:36:29.855Z,26.23
2022-11-28T14:38:02.577Z,16.88
2022-11-28T14:39:35.327Z,23.23
2022-11-28T14:41:15.170Z,18.30
2022-11-28T14:43:03.298Z,20.42
2022-11-28T14:45:03.417Z,22.20
2022-11-28T14:47:13.651Z,19.90
2022-11-28T14:49:00.269Z,20.00
2022-11-28T14:50:38.323Z,21.70
2022-11-28T14:52:39.976Z,21.77
2022-11-28T14:54:23.981Z,26.67
2022-11-28T14:58:03.163Z,24.90
2022-11-28T14:59:38.453Z,26.35
2022-11-28T15:01:15.781Z,19.67
2022-11-28T15:03:06.163Z,24.98
2022-11-28T15:04:44.224Z,23.25
2022-11-28T15:06:21.749Z,21.67
2022-11-28T15:08:45.409Z,22.23
2022-11-28T15:10:31.715Z,23.13
2022-11-28T15:12:15.138Z,20.65
2022-11-28T15:14:05.644Z,19.33
2022-11-28T15:15:47.871Z,22.30
2022-11-28T15:17:24.942Z,26.77
2022-11-28T15:19:24.320Z,26.30
2022-11-28T15:21:02.992Z,26.23
2022-11-28T15:22:43.063Z,30.95
2022-11-28T15:24:27.300Z,19.45
2022-11-28T15:26:00.329Z,21.65
2022-11-28T15:27:32.398Z,24.02
2022-11-28T15:29:21.369Z,22.08
2022-11-28T15:30:53.851Z,22.67
2022-11-28T15:32:30.070Z,22.13
2022-11-28T15:34:07.981Z,16.42
2022-11-28T15:36:01.766Z,19.23
2022-11-28T15:37:35.179Z,18.98
2022-11-28T15:39:27.115Z,17.85
2022-11-28T15:41:00.439Z,17.85
2022-11-28T15:42:35.159Z,16.65
2022-11-28T15:44:14.726Z,16.25
2022-11-28T15:46:05.906Z,19.08
2022-11-28T15:47:38.383Z,20.90
2022-11-28T15:49:30.455Z,20.42
2022-11-28T15:51:04.266Z,16.98
2022-11-28T15:52:36.237Z,23.00
2022-11-28T15:54:30.783Z,17.98
2022-11-28T15:56:09.822Z,19.35
2022-11-28T15:57:41.518Z,19.70
2022-11-28T15:59:13.109Z,24.60
2022-11-28T16:00:51.525Z,17.05
2022-11-28T16:02:31.624Z,19.08
2022-11-28T16:04:13.329Z,21.10
2022-11-28T16:05:48.340Z,17.13
2022-11-28T16:07:20.449Z,20.38
2022-11-28T16:08:59.772Z,22.48
2022-11-28T16:10:38.096Z,20.45
2022-11-28T16:12:14.539Z,24.05
2022-11-28T16:13:47.104Z,22.73
2022-11-28T16:15:21.131Z,25.95
2022-11-28T16:16:53.535Z,27.45
2022-11-28T16:18:26.857Z,25.33
2022-11-28T16:19:59.350Z,26.00
2022-11-28T16:21:45.123Z,27.77
2022-11-28T16:23:27.472Z,28.30
2022-11-28T16:26:54.644Z,23.45
2022-11-28T16:28:37.066Z,19.77
2022-11-28T16:30:25.275Z,20.60
2022-11-28T16:32:07.664Z,20.88
2022-11-28T16:35:32.364Z,18.88
2022-11-28T16:37:11.531Z,18.35
2022-11-28T16:38:45.007Z,21.73
2022-11-28T16:40:21.347Z,28.20
2022-11-28T16:42:17.080Z,23.00
2022-11-28T16:43:54.117Z,24.65
2022-11-28T16:45:58.758Z,24.73
2022-11-28T16:47:33.079Z,23.08
2022-11-28T16:49:08.147Z,20.77
2022-11-28T16:51:02.078Z,29.30
2022-11-28T16:52:40.781Z,20.52
2022-11-28T16:54:29.027Z,23.58
2022-11-28T16:56:00.749Z,26.33
2022-11-28T16:57:46.457Z,23.75
2022-11-28T16:59:20.151Z,23.50
2022-11-28T17:01:00.714Z,23.40
2022-11-28T17:02:32.445Z,25.70
2022-11-28T17:04:04.876Z,23.60
2022-11-28T17:05:36.471Z,23.40
2022-11-28T17:07:14.168Z,25.75
2022-11-28T17:08:46.151Z,28.17
2022-11-28T17:10:18.076Z,23.50
2022-11-28T17:12:07.384Z,20.50
2022-11-28T17:13:39.167Z,22.27
2022-11-28T17:15:16.740Z,22.02
2022-11-28T17:16:48.586Z,19.30
2022-11-28T17:18:20.317Z,21.95
2022-11-28T17:19:52.444Z,26.58
2022-11-28T17:21:37.277Z,25.33
2022-11-28T17:23:08.946Z,26.42
2022-11-28T17:24:40.625Z,23.42
2022-11-28T17:26:13.032Z,23.83
2022-11-28T17:27:45.525Z,25.73
2022-11-28T17:29:18.205Z,25.25
2022-11-28T17:30:49.828Z,30.08
2022-11-28T17:32:21.455Z,25.92
2022-11-28T17:33:53.137Z,28.88
2022-11-28T17:35:29.635Z,32.92
2022-11-28T17:37:02.862Z,31.75
2022-11-28T17:38:36.452Z,28.02
2022-11-28T17:40:27.256Z,33.25
2022-11-28T17:41:59.306Z,27.35
2022-11-28T17:43:35.946Z,27.77
2022-11-28T17:45:15.027Z,33.97
2022-11-28T17:46:48.660Z,27.23
2022-11-28T17:48:20.335Z,28.08
2022-11-28T17:49:52.764Z,26.00
2022-11-28T17:51:26.156Z,26.83
2022-11-28T17:52:58.140Z,24.40
2022-11-28T17:54:30.088Z,28.73
2022-11-28T17:56:02.212Z,25.75
2022-11-28T17:57:34.718Z,26.77
2022-11-28T17:59:06.528Z,23.75
2022-11-28T18:00:38.217Z,30.45
2022-11-28T18:02:10.950Z,25.17
2022-11-28T18:03:43.129Z,18.08
2022-11-28T18:05:14.750Z,16.75
2022-11-28T18:06:47.303Z,18.98
2022-11-28T18:08:22.314Z,20.65
2022-11-28T18:09:54.137Z,21.55
2022-11-28T18:11:27.191Z,20.50
2022-11-28T18:12:58.760Z,27.65
2022-11-28T18:14:35.224Z,24.67
2022-11-28T18:16:14.754Z,23.02
2022-11-28T18:17:47.569Z,80.68
2022-11-28T18:19:19.233Z,66.10
2022-11-28T18:20:50.813Z,30.50
2022-11-28T18:22:22.629Z,20.08
2022-11-28T18:23:54.567Z,27.83
2022-11-28T18:25:28.771Z,19.25
2022-11-28T18:27:00.581Z,22.88
2022-11-28T18:28:32.216Z,22.75
2022-11-28T18:30:05.414Z,27.45
2022-11-28T18:31:37.047Z,28.60
2022-11-28T18:33:11.560Z,32.22
2022-11-28T18:34:43.394Z,27.42
2022-11-28T18:36:17.954Z,26.83
2022-11-28T18:37:49.575Z,22.63
2022-11-28T18:39:21.232Z,25.40
2022-11-28T18:40:52.967Z,25.70
2022-11-28T18:42:25.007Z,20.55
2022-11-28T18:43:58.602Z,25.10
2022-11-28T18:45:32.212Z,30.30
2022-11-28T18:47:04.069Z,21.27
2022-11-28T18:48:37.958Z,26.83
2022-11-28T18:50:10.343Z,19.80
2022-11-28T18:51:42.256Z,18.38
2022-11-28T18:53:14.002Z,20.85
2022-11-28T18:54:46.041Z,22.30
2022-11-28T18:56:18.598Z,27.27
2022-11-28T18:57:50.252Z,21.42
2022-11-28T18:59:22.114Z,23.83
2022-11-28T19:00:53.902Z,21.90
2022-11-28T19:02:25.705Z,20.50
2022-11-28T19:04:00.509Z,20.77
2022-11-28T19:05:37.802Z,23.33
2022-11-28T19:07:11.209Z,26.05
2022-11-28T19:08:43.113Z,22.60
2022-11-28T19:10:15.383Z,26.45
2022-11-28T19:11:47.756Z,26.17
2022-11-28T19:13:19.411Z,31.17
2022-11-28T19:14:51.421Z,31.10
2022-11-28T19:16:29.857Z,30.40
2022-11-28T19:18:01.992Z,32.53
2022-11-28T19:19:34.197Z,33.33
2022-11-28T19:21:12.260Z,69.38
2022-11-28T19:22:44.121Z,74.13
2022-11-28T19:24:15.783Z,44.05
2022-11-28T19:25:49.166Z,41.92
2022-11-28T19:27:22.570Z,42.10
2022-11-28T19:28:54.925Z,48.03
2022-11-28T19:30:27.100Z,58.15
2022-11-28T19:31:58.887Z,54.05
2022-11-28T19:33:31.397Z,55.00
2022-11-28T19:35:03.589Z,62.40
2022-11-28T19:36:40.585Z,51.72
2022-11-28T19:38:12.317Z,38.35
2022-11-28T19:39:44.961Z,36.25
2022-11-28T19:41:19.075Z,29.60
2022-11-28T19:42:50.733Z,37.65
2022-11-28T19:44:24.290Z,36.22
2022-11-28T19:45:57.891Z,34.67
2022-11-28T19:47:29.639Z,36.40
2022-11-28T19:49:04.018Z,33.13
2022-11-28T19:50:35.928Z,35.97
2022-11-28T19:52:07.679Z,30.55
2022-11-28T19:53:42.283Z,32.20
2022-11-28T19:55:14.114Z,38.38
2022-11-28T19:56:46.537Z,35.25
2022-11-28T19:58:18.633Z,33.63
2022-11-28T19:59:50.401Z,32.45
2022-11-28T20:01:23.810Z,32.63
2022-11-28T20:02:57.985Z,30.13
2022-11-28T20:04:29.708Z,29.15
2022-11-28T20:06:02.026Z,27.73
2022-11-28T20:07:33.872Z,34.13
2022-11-28T20:09:08.871Z,28.35
2022-11-28T20:10:44.672Z,31.27
2022-11-28T20:12:16.429Z,31.15
2022-11-28T20:13:48.862Z,32.15
2022-11-28T20:15:21.618Z,28.30
2022-11-28T20:16:53.640Z,39.80
2022-11-28T20:18:26.322Z,33.92
2022-11-28T20:19:58.477Z,33.75
2022-11-28T20:21:31.877Z,36.63
2022-11-28T20:23:04.157Z,31.90
2022-11-28T20:24:36.943Z,43.90
2022-11-28T20:26:10.040Z,41.08
2022-11-28T20:27:42.055Z,42.03
2022-11-28T20:29:17.161Z,37.90
2022-11-28T20:30:50.331Z,36.90
2022-11-28T20:32:22.259Z,38.10
2022-11-28T20:33:54.785Z,37.17
2022-11-28T20:35:27.597Z,38.75
2022-11-28T20:36:59.482Z,36.50
2022-11-28T20:38:31.305Z,36.22
2022-11-28T20:40:03.034Z,32.40
2022-11-28T20:41:34.751Z,34.50
2022-11-28T20:43:06.492Z,39.60
2022-11-28T20:44:38.198Z,38.20
2022-11-28T20:46:14.168Z,38.35
2022-11-28T20:47:49.839Z,32.92
2022-11-28T20:50:53.579Z,30.83
2022-11-28T20:52:25.289Z,32.38
2022-11-28T20:53:58.401Z,29.48
2022-11-28T20:55:30.209Z,31.77
2022-11-28T20:58:53.733Z,33.22
2022-11-28T21:00:26.911Z,31.85
2022-11-28T21:01:58.724Z,28.92
2022-11-28T21:03:30.536Z,32.78
2022-11-28T21:05:02.358Z,34.28
2022-11-28T21:06:36.365Z,28.98
2022-11-28T21:08:08.086Z,31.38
2022-11-28T21:09:39.830Z,32.47
2022-11-28T21:11:30.616Z,30.73
2022-11-28T21:13:05.932Z,25.92
2022-11-28T21:14:37.548Z,31.05
2022-11-28T21:16:12.700Z,27.38
2022-11-28T21:17:44.582Z,31.88
2022-11-28T21:19:16.365Z,30.17
2022-11-28T21:20:48.099Z,31.52